createdAt,value
2019-02-06T00:00:53.931Z,53.90
2019-02-06T00:03:24.060Z,56.70
2019-02-06T00:05:53.822Z,64.80
2019-02-06T00:08:23.645Z,56.17
2019-02-06T00:10:53.456Z,54.03
2019-02-06T00:13:23.283Z,48.83
2019-02-06T00:15:53.388Z,47.98
2019-02-06T00:18:23.320Z,48.02
2019-02-06T00:20:53.143Z,47.40
2019-02-06T00:23:22.934Z,48.35
2019-02-06T00:25:52.741Z,52.23
2019-02-06T00:28:22.546Z,123.10
2019-02-06T00:30:52.754Z,46.23
2019-02-06T00:33:22.395Z,48.40
2019-02-06T00:35:52.135Z,78.92
2019-02-06T00:38:21.850Z,52.03
2019-02-06T00:40:51.524Z,67.03
2019-02-06T00:43:21.141Z,89.95
2019-02-06T00:45:50.922Z,48.98
2019-02-06T00:48:20.564Z,57.43
2019-02-06T00:50:50.360Z,63.80
2019-02-06T00:53:20.109Z,47.45
2019-02-06T00:55:49.875Z,44.67
2019-02-06T00:58:19.536Z,58.10
2019-02-06T01:00:49.263Z,62.58
2019-02-06T01:03:19.010Z,56.00
2019-02-06T01:05:48.676Z,67.42
2019-02-06T01:08:18.531Z,55.00
2019-02-06T01:10:48.212Z,56.60
2019-02-06T01:13:17.877Z,65.47
2019-02-06T01:15:47.624Z,39.30
2019-02-06T01:18:17.244Z,114.83
2019-02-06T01:20:46.988Z,111.52
2019-02-06T01:23:16.681Z,49.18
2019-02-06T01:25:46.395Z,54.67
2019-02-06T01:28:16.037Z,57.50
2019-02-06T01:30:58.573Z,52.17
2019-02-06T01:33:28.251Z,45.40
2019-02-06T01:35:58.033Z,52.38
2019-02-06T01:38:27.902Z,48.95
2019-02-06T01:40:57.688Z,62.23
2019-02-06T01:43:27.488Z,54.65
2019-02-06T01:45:57.218Z,59.27
2019-02-06T01:48:26.930Z,66.28
2019-02-06T01:50:56.582Z,58.25
2019-02-06T01:53:26.176Z,80.77
2019-02-06T01:55:55.863Z,57.13
2019-02-06T01:58:25.657Z,66.42
2019-02-06T02:00:55.382Z,54.25
2019-02-06T02:03:25.154Z,64.12
2019-02-06T02:06:02.524Z,51.92
2019-02-06T02:08:26.477Z,62.63
2019-02-06T02:10:56.228Z,57.93
2019-02-06T02:13:25.964Z,58.78
2019-02-06T02:15:55.798Z,53.35
2019-02-06T02:18:25.430Z,67.22
2019-02-06T02:20:55.208Z,58.45
2019-02-06T02:23:24.952Z,60.95
2019-02-06T02:25:54.764Z,65.93
2019-02-06T02:28:24.426Z,71.97
2019-02-06T02:30:55.710Z,58.68
2019-02-06T02:33:25.427Z,56.40
2019-02-06T02:35:55.076Z,62.63
2019-02-06T02:38:24.741Z,54.97
2019-02-06T02:40:54.817Z,58.13
2019-02-06T02:43:24.485Z,61.30
2019-02-06T02:45:54.325Z,57.03
2019-02-06T02:48:24.165Z,62.70
2019-02-06T02:50:53.850Z,58.63
2019-02-06T02:53:23.534Z,58.27
2019-02-06T02:55:53.550Z,75.25
2019-02-06T02:58:23.370Z,103.38
2019-02-06T03:01:15.199Z,71.33
2019-02-06T03:03:52.539Z,86.70
2019-02-06T03:06:28.305Z,149.00
2019-02-06T03:08:53.546Z,63.25
2019-02-06T03:11:23.251Z,44.55
2019-02-06T03:13:52.933Z,58.63
2019-02-06T03:16:22.695Z,83.30
2019-02-06T03:18:52.626Z,73.22
2019-02-06T03:21:22.403Z,71.00
2019-02-06T03:23:52.174Z,62.98
2019-02-06T03:26:21.926Z,77.35
2019-02-06T03:28:51.624Z,82.10
2019-02-06T03:31:21.386Z,77.43
2019-02-06T03:33:51.078Z,86.22
2019-02-06T03:36:20.745Z,60.70
2019-02-06T03:38:51.297Z,79.92
2019-02-06T03:41:21.012Z,80.83
2019-02-06T03:43:51.073Z,69.47
2019-02-06T03:46:20.844Z,61.28
2019-02-06T03:48:50.604Z,70.00
2019-02-06T03:51:20.250Z,89.17
2019-02-06T03:53:49.989Z,88.72
2019-02-06T03:56:19.618Z,57.75
2019-02-06T03:58:49.320Z,87.82
2019-02-06T04:01:19.030Z,89.80
2019-02-06T04:03:48.776Z,58.38
2019-02-06T04:06:18.374Z,66.62
2019-02-06T04:08:48.013Z,68.47
2019-02-06T04:11:17.756Z,62.95
2019-02-06T04:13:47.467Z,44.27
2019-02-06T04:16:17.197Z,86.53
2019-02-06T04:18:46.989Z,57.73
2019-02-06T04:21:16.786Z,52.50
2019-02-06T04:23:46.445Z,51.68
2019-02-06T04:26:16.216Z,69.12
2019-02-06T04:28:46.228Z,61.37
2019-02-06T04:31:15.964Z,81.65
2019-02-06T04:33:45.700Z,64.90
2019-02-06T04:36:15.399Z,74.75
2019-02-06T04:38:45.246Z,60.95
2019-02-06T04:41:15.014Z,72.67
2019-02-06T04:43:44.675Z,91.05
2019-02-06T04:46:14.692Z,68.72
2019-02-06T04:48:44.426Z,64.58
2019-02-06T04:51:14.083Z,78.97
2019-02-06T04:53:43.866Z,79.15
2019-02-06T04:56:13.545Z,64.47
2019-02-06T04:58:43.385Z,71.75
2019-02-06T05:01:13.275Z,74.97
2019-02-06T05:03:42.930Z,83.80
2019-02-06T05:06:12.609Z,113.95
2019-02-06T05:08:42.259Z,82.00
2019-02-06T05:11:11.916Z,67.08
2019-02-06T05:13:41.689Z,80.30
2019-02-06T05:16:11.425Z,71.77
2019-02-06T05:18:41.103Z,60.90
2019-02-06T05:21:10.732Z,48.80
2019-02-06T05:23:40.523Z,56.75
2019-02-06T05:26:10.136Z,63.90
2019-02-06T05:28:39.907Z,57.15
2019-02-06T05:31:09.642Z,80.10
2019-02-06T05:33:39.326Z,75.40
2019-02-06T05:36:08.997Z,69.00
2019-02-06T05:38:38.732Z,76.60
2019-02-06T05:41:08.507Z,70.92
2019-02-06T05:43:38.215Z,97.97
2019-02-06T05:46:07.852Z,74.67
2019-02-06T05:48:37.620Z,60.95
2019-02-06T05:51:07.275Z,65.57
2019-02-06T05:53:36.953Z,66.15
2019-02-06T05:56:06.726Z,69.90
2019-02-06T05:58:36.471Z,65.75
2019-02-06T06:01:06.175Z,66.25
2019-02-06T06:03:36.270Z,91.57
2019-02-06T06:06:06.002Z,72.58
2019-02-06T06:08:35.668Z,65.40
2019-02-06T06:11:05.491Z,75.28
2019-02-06T06:13:35.303Z,59.60
2019-02-06T06:16:05.009Z,55.17
2019-02-06T06:18:35.147Z,53.52
2019-02-06T06:21:04.950Z,51.42
2019-02-06T06:23:34.617Z,58.02
2019-02-06T06:26:04.860Z,62.80
2019-02-06T06:28:34.559Z,57.88
2019-02-06T06:31:04.434Z,57.25
2019-02-06T06:33:34.669Z,53.42
2019-02-06T06:36:04.352Z,53.70
2019-02-06T06:38:34.098Z,54.45
2019-02-06T06:41:04.446Z,45.15
2019-02-06T06:43:34.270Z,47.70
2019-02-06T06:46:03.906Z,67.40
2019-02-06T06:48:34.288Z,63.23
2019-02-06T06:51:04.046Z,64.45
2019-02-06T06:53:33.748Z,59.13
2019-02-06T06:56:03.510Z,57.50
2019-02-06T06:58:33.312Z,54.30
2019-02-06T07:01:03.089Z,56.25
2019-02-06T07:03:32.908Z,62.70
2019-02-06T07:06:02.692Z,67.03
2019-02-06T07:08:32.478Z,62.10
2019-02-06T07:11:02.097Z,52.58
2019-02-06T07:13:31.762Z,59.98
2019-02-06T07:16:01.500Z,59.95
2019-02-06T07:18:31.091Z,60.25
2019-02-06T07:21:01.612Z,60.75
2019-02-06T07:23:31.577Z,61.95
2019-02-06T07:26:01.356Z,60.35
2019-02-06T07:28:31.100Z,59.18
2019-02-06T07:31:00.737Z,53.80
2019-02-06T07:33:30.487Z,45.52
2019-02-06T07:36:00.224Z,50.90
2019-02-06T07:38:30.005Z,44.98
2019-02-06T07:40:59.701Z,52.48
2019-02-06T07:43:29.406Z,50.67
2019-02-06T07:45:59.094Z,45.43
2019-02-06T07:48:28.864Z,42.08
2019-02-06T07:50:58.553Z,48.98
2019-02-06T07:53:28.189Z,50.67
2019-02-06T07:55:57.911Z,45.38
2019-02-06T07:58:27.716Z,47.75
2019-02-06T08:00:57.428Z,46.18
2019-02-06T08:03:27.096Z,49.85
2019-02-06T08:05:56.879Z,58.52
2019-02-06T08:08:35.727Z,49.18
2019-02-06T08:10:58.002Z,48.87
2019-02-06T08:13:27.619Z,46.60
2019-02-06T08:15:57.476Z,50.70
2019-02-06T08:18:27.246Z,53.90
2019-02-06T08:20:56.991Z,50.90
2019-02-06T08:23:26.773Z,45.70
2019-02-06T08:25:56.368Z,49.87
2019-02-06T08:28:26.128Z,52.63
2019-02-06T08:30:56.180Z,46.97
2019-02-06T08:33:25.793Z,45.00
2019-02-06T08:35:55.523Z,43.97
2019-02-06T08:38:25.184Z,49.10
2019-02-06T08:40:54.906Z,47.33
2019-02-06T08:43:24.639Z,50.10
2019-02-06T08:45:54.815Z,54.30
2019-02-06T08:48:24.646Z,48.73
2019-02-06T08:50:54.396Z,49.93
2019-02-06T08:53:24.137Z,48.57
2019-02-06T08:55:53.996Z,52.00
2019-02-06T08:58:23.679Z,53.40
2019-02-06T09:00:53.816Z,50.73
2019-02-06T09:03:23.664Z,48.90
2019-02-06T09:05:53.470Z,46.40
2019-02-06T09:08:23.079Z,53.00
2019-02-06T09:10:52.725Z,49.20
2019-02-06T09:13:22.495Z,54.73
2019-02-06T09:15:52.457Z,53.03
2019-02-06T09:18:22.199Z,47.50
2019-02-06T09:20:52.836Z,52.27
2019-02-06T09:23:22.774Z,49.50
2019-02-06T09:25:52.513Z,47.43
2019-02-06T09:28:22.145Z,53.87
2019-02-06T09:30:51.830Z,49.13
2019-02-06T09:33:21.611Z,46.97
2019-02-06T09:35:51.579Z,45.53
2019-02-06T09:38:21.347Z,41.50
2019-02-06T09:40:51.028Z,43.60
2019-02-06T09:43:20.875Z,52.13
2019-02-06T09:45:50.857Z,44.33
2019-02-06T09:48:21.980Z,48.07
2019-02-06T09:50:51.784Z,45.37
2019-02-06T09:53:21.443Z,51.03
2019-02-06T09:55:53.278Z,44.07
2019-02-06T09:58:22.544Z,47.33
2019-02-06T10:00:52.290Z,46.63
2019-02-06T10:03:22.582Z,42.37
2019-02-06T10:05:52.201Z,39.57
2019-02-06T10:08:21.853Z,40.97
2019-02-06T10:10:51.621Z,39.90
2019-02-06T10:13:21.380Z,36.70
2019-02-06T10:15:51.124Z,41.57
2019-02-06T10:18:20.846Z,39.13
2019-02-06T10:20:52.007Z,39.70
2019-02-06T10:23:21.619Z,37.27
2019-02-06T10:25:53.605Z,37.30
2019-02-06T10:28:24.305Z,36.97
2019-02-06T10:30:54.259Z,36.63
2019-02-06T10:33:23.992Z,37.33
2019-02-06T10:35:53.783Z,36.83
2019-02-06T10:38:24.129Z,40.33
2019-02-06T10:40:53.902Z,39.73
2019-02-06T10:43:31.629Z,37.43
2019-02-06T10:45:55.202Z,35.80
2019-02-06T10:48:24.961Z,38.43
2019-02-06T10:50:54.913Z,41.87
2019-02-06T10:53:24.692Z,42.33
2019-02-06T10:55:54.353Z,38.37
2019-02-06T10:58:24.086Z,35.93
2019-02-06T11:00:57.871Z,44.47
2019-02-06T11:03:27.602Z,42.30
2019-02-06T11:05:57.339Z,42.43
2019-02-06T11:08:26.960Z,42.73
2019-02-06T11:11:00.620Z,39.00
2019-02-06T11:13:33.128Z,38.30
2019-02-06T11:16:05.604Z,38.07
2019-02-06T11:18:38.076Z,38.23
2019-02-06T11:21:08.032Z,39.23
2019-02-06T11:23:38.108Z,37.50
2019-02-06T11:26:08.319Z,38.47
2019-02-06T11:28:37.950Z,35.40
2019-02-06T11:31:07.729Z,35.07
2019-02-06T11:33:37.507Z,36.53
2019-02-06T11:36:08.200Z,34.43
2019-02-06T11:38:38.117Z,39.20
2019-02-06T11:41:07.862Z,40.30
2019-02-06T11:43:37.966Z,41.60
2019-02-06T11:46:09.161Z,36.63
2019-02-06T11:48:39.079Z,39.73
2019-02-06T11:51:09.203Z,40.30
2019-02-06T11:53:38.909Z,39.13
2019-02-06T11:56:08.700Z,40.90
2019-02-06T11:58:38.419Z,35.33
2019-02-06T12:01:17.810Z,34.07
2019-02-06T12:03:47.659Z,33.60
2019-02-06T12:06:17.373Z,35.90
2019-02-06T12:08:47.155Z,36.37
2019-02-06T12:11:17.652Z,39.77
2019-02-06T12:13:47.902Z,37.10
2019-02-06T12:16:17.584Z,38.60
2019-02-06T12:18:47.775Z,39.70
2019-02-06T12:21:18.126Z,35.40
2019-02-06T12:23:48.111Z,39.50
2019-02-06T12:26:17.903Z,40.30
2019-02-06T12:28:47.565Z,38.27
2019-02-06T12:31:17.387Z,40.73
2019-02-06T12:33:47.100Z,39.67
2019-02-06T12:36:16.756Z,39.93
2019-02-06T12:38:53.698Z,43.57
2019-02-06T12:41:17.778Z,44.03
2019-02-06T12:43:47.516Z,46.63
2019-02-06T12:46:17.303Z,45.77
2019-02-06T12:48:47.042Z,43.20
2019-02-06T12:51:16.726Z,43.77
2019-02-06T12:53:46.380Z,42.97
2019-02-06T12:56:16.111Z,39.47
2019-02-06T12:58:45.777Z,42.53
2019-02-06T13:01:15.584Z,41.53
2019-02-06T13:03:45.377Z,40.97
2019-02-06T13:06:15.081Z,38.47
2019-02-06T13:08:44.835Z,40.83
2019-02-06T13:11:14.563Z,42.37
2019-02-06T13:13:45.301Z,43.70
2019-02-06T13:16:15.177Z,43.37
2019-02-06T13:18:44.947Z,46.17
2019-02-06T13:21:14.685Z,41.80
2019-02-06T13:23:44.443Z,40.63
2019-02-06T13:26:14.243Z,45.77
2019-02-06T13:28:43.988Z,45.73
2019-02-06T13:31:13.647Z,43.63
2019-02-06T13:33:43.402Z,40.63
2019-02-06T13:36:13.226Z,41.67
2019-02-06T13:38:42.898Z,45.77
2019-02-06T13:41:12.630Z,40.57
2019-02-06T13:43:42.364Z,46.30
2019-02-06T13:46:12.143Z,43.13
2019-02-06T13:48:41.817Z,41.80
2019-02-06T13:51:17.381Z,43.33
2019-02-06T13:53:43.048Z,46.37
2019-02-06T13:56:12.691Z,41.17
2019-02-06T13:58:42.447Z,43.43
2019-02-06T14:01:12.346Z,43.20
2019-02-06T14:03:42.148Z,44.97
2019-02-06T14:06:12.455Z,49.50
2019-02-06T14:08:42.211Z,49.50
2019-02-06T14:11:11.872Z,51.63
2019-02-06T14:13:44.677Z,51.17
2019-02-06T14:16:14.423Z,57.80
2019-02-06T14:18:44.406Z,55.33
2019-02-06T14:21:14.326Z,62.37
2019-02-06T14:23:59.172Z,62.57
2019-02-06T14:26:41.800Z,55.70
2019-02-06T14:29:50.377Z,64.27
2019-02-06T14:32:34.478Z,61.37
2019-02-06T14:36:03.635Z,56.77
2019-02-06T14:39:07.074Z,65.27
2019-02-06T14:42:17.874Z,70.77
2019-02-06T14:45:36.836Z,56.57
2019-02-06T14:48:46.269Z,60.23
2019-02-06T14:51:38.082Z,66.53
2019-02-06T14:54:41.875Z,57.77
2019-02-06T14:57:19.857Z,61.20
2019-02-06T15:00:18.441Z,59.23
2019-02-06T15:03:28.408Z,61.33
2019-02-06T15:06:40.124Z,59.87
2019-02-06T15:09:45.994Z,64.50
2019-02-06T15:12:48.829Z,58.97
2019-02-06T15:15:40.684Z,70.73
2019-02-06T15:18:30.138Z,72.87
2019-02-06T15:21:11.837Z,66.33
2019-02-06T15:24:09.142Z,66.27
2019-02-06T15:27:14.776Z,79.70
2019-02-06T15:29:55.642Z,72.87
2019-02-06T15:32:44.487Z,74.30
2019-02-06T15:35:48.401Z,68.30
2019-02-06T15:39:05.139Z,68.70
2019-02-06T15:42:16.279Z,63.33
2019-02-06T15:45:33.142Z,63.83
2019-02-06T15:48:52.445Z,66.27
2019-02-06T15:52:06.412Z,65.73
2019-02-06T15:55:22.147Z,59.57
2019-02-06T15:58:38.763Z,58.73
2019-02-06T16:01:49.318Z,62.50
2019-02-06T16:05:43.862Z,58.47
2019-02-06T16:08:44.397Z,58.87
2019-02-06T16:12:03.876Z,64.33
2019-02-06T16:15:13.990Z,69.47
2019-02-06T16:17:57.474Z,62.87
2019-02-06T16:21:11.141Z,53.87
2019-02-06T16:24:07.071Z,59.73
2019-02-06T16:27:25.451Z,56.97
2019-02-06T16:30:42.030Z,60.08
2019-02-06T16:33:36.780Z,53.87
2019-02-06T16:36:43.292Z,62.80
2019-02-06T16:39:31.358Z,58.50
2019-02-06T16:42:19.629Z,57.00
2019-02-06T16:45:27.046Z,54.85
2019-02-06T16:48:13.707Z,53.00
2019-02-06T16:51:13.980Z,60.55
2019-02-06T16:54:15.005Z,61.23
2019-02-06T16:57:34.773Z,58.87
2019-02-06T17:00:50.114Z,62.65
2019-02-06T17:03:56.882Z,64.10
2019-02-06T17:06:55.351Z,69.50
2019-02-06T17:09:53.124Z,68.87
2019-02-06T17:12:51.175Z,71.60
2019-02-06T17:15:52.296Z,65.90
2019-02-06T17:18:51.751Z,64.75
2019-02-06T17:21:52.069Z,59.90
2019-02-06T17:24:58.958Z,57.93
2019-02-06T17:28:34.278Z,58.48
2019-02-06T17:31:50.344Z,71.85
2019-02-06T17:35:04.417Z,69.20
2019-02-06T17:38:15.629Z,67.25
2019-02-06T17:41:23.616Z,72.85
2019-02-06T17:44:37.951Z,73.12
2019-02-06T17:47:57.849Z,79.90
2019-02-06T17:50:50.484Z,69.42
2019-02-06T17:53:42.088Z,69.32
2019-02-06T17:56:11.875Z,68.10
2019-02-06T17:58:43.662Z,75.12
2019-02-06T18:01:28.047Z,80.20
2019-02-06T18:04:05.171Z,73.50
2019-02-06T18:06:34.907Z,69.77
2019-02-06T18:09:09.358Z,71.33
2019-02-06T18:11:39.195Z,70.25
2019-02-06T18:14:08.801Z,76.62
2019-02-06T18:16:39.316Z,65.37
2019-02-06T18:19:09.170Z,64.82
2019-02-06T18:21:38.784Z,62.90
2019-02-06T18:24:08.865Z,60.33
2019-02-06T18:26:45.602Z,71.75
2019-02-06T18:29:15.344Z,69.82
2019-02-06T18:31:45.016Z,73.40
2019-02-06T18:34:14.707Z,81.12
2019-02-06T18:36:44.455Z,77.40
2019-02-06T18:39:15.565Z,71.22
2019-02-06T18:41:45.699Z,62.67
2019-02-06T18:44:15.535Z,71.97
2019-02-06T18:46:47.349Z,65.80
2019-02-06T18:49:17.528Z,70.72
2019-02-06T18:51:47.400Z,67.87
2019-02-06T18:54:17.148Z,63.98
2019-02-06T18:56:47.758Z,63.28
2019-02-06T18:59:17.950Z,60.33
2019-02-06T19:01:47.666Z,69.87
2019-02-06T19:04:19.620Z,76.22
2019-02-06T19:06:49.487Z,69.27
2019-02-06T19:09:19.724Z,78.47
2019-02-06T19:11:49.864Z,75.37
2019-02-06T19:14:20.012Z,69.85
2019-02-06T19:16:50.462Z,76.47
2019-02-06T19:19:25.452Z,85.32
2019-02-06T19:21:51.521Z,75.90
2019-02-06T19:24:21.257Z,73.30
2019-02-06T19:26:52.617Z,69.58
2019-02-06T19:29:22.339Z,68.40
2019-02-06T19:31:52.080Z,74.58
2019-02-06T19:34:21.842Z,64.63
2019-02-06T19:36:54.804Z,69.25
2019-02-06T19:39:24.651Z,60.35
2019-02-06T19:41:54.378Z,60.28
2019-02-06T19:44:24.172Z,61.37
2019-02-06T19:46:55.679Z,59.77
2019-02-06T19:49:28.033Z,61.00
2019-02-06T19:51:57.947Z,54.63
2019-02-06T19:54:28.603Z,60.30
2019-02-06T19:56:58.436Z,59.35
2019-02-06T19:59:28.214Z,63.15
2019-02-06T20:01:58.141Z,70.83
2019-02-06T20:04:28.016Z,59.70
2019-02-06T20:06:57.886Z,53.80
2019-02-06T20:09:30.317Z,65.70
2019-02-06T20:11:59.108Z,66.85
2019-02-06T20:14:28.939Z,65.03
2019-02-06T20:16:58.871Z,66.05
2019-02-06T20:19:28.628Z,78.45
2019-02-06T20:21:58.513Z,85.22
2019-02-06T20:24:28.190Z,61.65
2019-02-06T20:26:58.045Z,75.32
2019-02-06T20:29:27.939Z,67.92
2019-02-06T20:31:57.802Z,59.18
2019-02-06T20:34:27.899Z,66.92
2019-02-06T20:36:57.790Z,68.83
2019-02-06T20:39:28.444Z,63.35
2019-02-06T20:41:58.627Z,66.57
2019-02-06T20:44:29.826Z,74.83
2019-02-06T20:46:59.843Z,65.20
2019-02-06T20:49:29.893Z,71.77
2019-02-06T20:51:59.800Z,63.73
2019-02-06T20:54:29.606Z,63.60
2019-02-06T20:56:59.469Z,65.97
2019-02-06T20:59:29.116Z,64.12
2019-02-06T21:01:59.053Z,71.30
2019-02-06T21:04:28.733Z,64.67
2019-02-06T21:06:58.540Z,62.90
2019-02-06T21:09:29.205Z,67.23
2019-02-06T21:11:58.879Z,60.63
2019-02-06T21:14:28.611Z,60.05
2019-02-06T21:16:58.402Z,63.15
2019-02-06T21:19:28.384Z,60.48
2019-02-06T21:21:58.109Z,64.45
2019-02-06T21:24:27.983Z,61.63
2019-02-06T21:26:57.809Z,63.33
2019-02-06T21:29:27.484Z,66.53
2019-02-06T21:31:57.316Z,65.03
2019-02-06T21:34:29.601Z,63.78
2019-02-06T21:36:59.355Z,62.98
2019-02-06T21:39:29.026Z,66.47
2019-02-06T21:41:58.866Z,63.08
2019-02-06T21:44:28.625Z,68.45
2019-02-06T21:46:58.305Z,61.10
2019-02-06T21:49:28.465Z,70.65
2019-02-06T21:51:58.234Z,68.12
2019-02-06T21:54:27.896Z,70.78
2019-02-06T21:56:57.626Z,61.40
2019-02-06T21:59:27.368Z,65.10
2019-02-06T22:01:57.157Z,71.22
2019-02-06T22:04:27.137Z,62.93
2019-02-06T22:06:56.827Z,66.12
2019-02-06T22:09:26.527Z,59.20
2019-02-06T22:11:56.215Z,74.15
2019-02-06T22:14:26.012Z,64.25
2019-02-06T22:16:55.905Z,72.92
2019-02-06T22:19:25.586Z,65.87
2019-02-06T22:21:55.212Z,69.32
2019-02-06T22:24:25.005Z,68.05
2019-02-06T22:26:54.902Z,59.58
2019-02-06T22:29:24.751Z,60.50
2019-02-06T22:31:55.006Z,55.27
2019-02-06T22:34:24.788Z,51.95
2019-02-06T22:36:54.465Z,57.33
2019-02-06T22:39:24.236Z,58.63
2019-02-06T22:41:53.965Z,55.83
2019-02-06T22:44:23.590Z,69.70
2019-02-06T22:46:53.705Z,61.95
2019-02-06T22:49:23.611Z,64.25
2019-02-06T22:51:53.260Z,62.93
2019-02-06T22:54:22.959Z,65.52
2019-02-06T22:56:52.670Z,65.40
2019-02-06T22:59:22.446Z,66.33
2019-02-06T23:01:57.725Z,59.03
2019-02-06T23:04:27.578Z,51.40
2019-02-06T23:06:57.216Z,54.35
2019-02-06T23:09:26.935Z,52.73
2019-02-06T23:11:56.798Z,55.45
2019-02-06T23:14:27.054Z,64.22
2019-02-06T23:16:56.802Z,59.65
2019-02-06T23:19:26.597Z,65.83
2019-02-06T23:21:56.206Z,74.53
2019-02-06T23:24:26.156Z,72.35
2019-02-06T23:26:55.846Z,64.55
2019-02-06T23:29:25.589Z,63.55
2019-02-06T23:31:55.211Z,58.30
2019-02-06T23:34:25.026Z,50.67
2019-02-06T23:36:54.786Z,55.78
2019-02-06T23:39:24.430Z,52.10
2019-02-06T23:41:54.130Z,49.70
2019-02-06T23:44:29.059Z,54.23
2019-02-06T23:46:56.284Z,51.90
2019-02-06T23:49:26.030Z,63.95
2019-02-06T23:51:55.844Z,44.95
2019-02-06T23:54:25.633Z,52.90
2019-02-06T23:56:55.658Z,60.43
2019-02-06T23:59:25.572Z,60.20
